Terminal Aerodrome Forecast
Issued by NWS Cleveland, OH

Home | Current Version | Previous Version | Text Only | Print | Product List | Glossary On
Versions: 1 2 3 4 5 6 7 8 9 10 11 12 13 14 15
000
FTUS41 KCLE 231139
TAFTOL
TAF
KTOL 231139Z 2312/2412 22010KT 4SM -RA VCTS BKN009CB OVC015
     FM231400 24012KT 4SM -SHRA VCTS BKN010CB OVC025
      TEMPO 2314/2317 1SM TSRA OVC005CB
     FM231800 25012G20KT 6SM -SHRA BKN025
     FM232000 28012KT P6SM BKN050
     FM240300 29005KT P6SM SCT170=

USA.gov is the U.S. government's official web portal to all federal, state and local government web resources and services.